Time;durP1;ratioP1;P1;durP2;ratioP2;P2;SDS_P1;SDS_P2;PMS_P1;PMS_P2;Temp;Humidity;BMP_temperature;BMP_pressure;BME280_temperature;BME280_humidity;BME280_pressure;Samples;Min_cycle;Max_cycle;Signal;HPM_P1;HPM_P2
2022/01/09 00:00:29;;;;;;;23.20;11.80;;;;;;;-2.44;76.58;100100.02;1747300;82;21219;-68
2022/01/09 00:02:58;;;;;;;21.05;9.18;;;;;;;-2.43;76.42;100098.77;1755751;80;21044;-70
2022/01/09 00:05:24;;;;;;;22.50;9.55;;;;;;;-2.44;76.74;100091.89;1769393;80;21125;-68
2022/01/09 00:07:51;;;;;;;19.23;8.55;;;;;;;-2.43;76.71;100086.30;1778191;80;21112;-67
2022/01/09 00:10:18;;;;;;;21.10;8.68;;;;;;;-2.47;76.37;100081.50;1778488;79;21116;-68
2022/01/09 00:12:45;;;;;;;19.60;8.95;;;;;;;-2.51;76.53;100086.16;1782243;80;21316;-69
2022/01/09 00:15:12;;;;;;;22.58;8.45;;;;;;;-2.55;76.65;100086.98;1779234;80;21615;-69
2022/01/09 00:20:17;;;;;;;18.05;7.53;;;;;;;-2.56;77.10;100074.92;1669861;84;21529;-69
2022/01/09 00:25:12;;;;;;;18.05;8.80;;;;;;;-2.54;77.35;100068.08;1667472;86;21557;-69
2022/01/09 00:27:38;;;;;;;20.92;8.70;;;;;;;-2.53;77.70;100067.25;1701420;84;21096;-68
2022/01/09 00:30:12;;;;;;;24.90;8.43;;;;;;;-2.50;77.78;100062.12;1701337;84;21164;-70
2022/01/09 00:32:38;;;;;;;26.93;9.45;;;;;;;-2.51;77.54;100060.38;1701844;84;21576;-68
2022/01/09 00:35:06;;;;;;;21.15;8.45;;;;;;;-2.51;77.31;100062.95;1701623;84;21131;-70
2022/01/09 00:37:33;;;;;;;20.85;8.38;;;;;;;-2.55;77.43;100050.89;1701826;84;21131;-69
2022/01/09 00:40:00;;;;;;;18.27;8.43;;;;;;;-2.56;77.48;100045.27;1701379;84;21699;-69
2022/01/09 00:42:26;;;;;;;22.13;8.15;;;;;;;-2.60;78.05;100037.03;1701617;84;21854;-69
2022/01/09 00:44:52;;;;;;;25.40;8.95;;;;;;;-2.59;77.75;100032.34;1701289;84;21055;-69
2022/01/09 00:47:19;;;;;;;55.65;20.23;;;;;;;-2.62;78.00;100031.02;1701702;84;21068;-69
2022/01/09 00:49:46;;;;;;;34.80;12.68;;;;;;;-2.61;79.00;100030.16;1701221;84;21583;-69
2022/01/09 00:52:13;;;;;;;55.58;21.93;;;;;;;-2.59;78.96;100028.47;1701621;84;21123;-69
2022/01/09 00:54:39;;;;;;;38.57;14.30;;;;;;;-2.58;79.23;100025.04;1701422;84;21152;-68
2022/01/09 00:57:06;;;;;;;36.58;11.57;;;;;;;-2.59;79.52;100023.31;1701478;84;21057;-70
2022/01/09 00:59:33;;;;;;;39.78;20.32;;;;;;;-2.57;79.69;100019.05;1701157;84;21108;-69
2022/01/09 01:01:59;;;;;;;26.12;10.58;;;;;;;-2.56;79.95;100020.77;1719098;83;21152;-70
2022/01/09 01:04:26;;;;;;;23.70;10.30;;;;;;;-2.56;80.17;100012.61;1743694;82;21048;-70
2022/01/09 01:06:52;;;;;;;27.07;10.78;;;;;;;-2.56;80.25;100002.30;1726173;82;21123;-70
2022/01/09 01:09:24;;;;;;;21.85;9.43;;;;;;;-2.56;80.51;100011.75;1686315;85;21074;-70
2022/01/09 01:11:48;;;;;;;25.15;9.93;;;;;;;-2.58;80.89;100004.41;1686276;83;21198;-70
2022/01/09 01:14:21;;;;;;;25.97;10.15;;;;;;;-2.60;80.92;99998.36;1695660;84;22118;-70
2022/01/09 01:16:45;;;;;;;24.98;8.78;;;;;;;-2.62;81.50;99998.80;1695630;84;21597;-71
2022/01/09 01:19:13;;;;;;;22.62;8.58;;;;;;;-2.64;81.37;99997.47;1691677;84;21109;-70
2022/01/09 01:21:41;;;;;;;21.57;9.20;;;;;;;-2.66;81.80;99994.43;1685336;85;21124;-70
2022/01/09 01:24:07;;;;;;;26.27;10.90;;;;;;;-2.66;81.68;99995.72;1690329;84;21148;-69
2022/01/09 01:26:35;;;;;;;25.90;10.43;;;;;;;-2.68;81.79;99984.52;1697498;83;21647;-69
2022/01/09 01:29:02;;;;;;;27.20;9.98;;;;;;;-2.68;81.93;99988.38;1717063;83;21044;-70
2022/01/09 01:31:29;;;;;;;23.55;9.95;;;;;;;-2.65;82.24;99981.97;1717551;83;21109;-69
2022/01/09 01:33:55;;;;;;;18.98;7.35;;;;;;;-2.65;82.67;99985.41;1717921;83;21596;-71
2022/01/09 01:36:22;;;;;;;24.43;8.93;;;;;;;-2.69;82.31;99977.61;1717377;83;21049;-69
2022/01/09 01:38:48;;;;;;;21.35;8.38;;;;;;;-2.70;82.98;99981.05;1717098;83;21802;-70
2022/01/09 01:41:14;;;;;;;30.17;9.43;;;;;;;-2.69;82.35;99972.45;1717002;83;21040;-69
2022/01/09 01:43:41;;;;;;;28.60;10.20;;;;;;;-2.69;82.84;99968.19;1716756;83;21155;-70
2022/01/09 01:46:08;;;;;;;22.50;9.03;;;;;;;-2.68;83.05;99961.31;1717129;83;21028;-72
2022/01/09 01:48:34;;;;;;;23.07;8.90;;;;;;;-2.67;82.80;99959.17;1717058;83;21088;-71
2022/01/09 01:51:01;;;;;;;29.15;10.18;;;;;;;-2.65;82.16;99949.75;1717252;83;21076;-71
2022/01/09 01:53:28;;;;;;;23.27;8.20;;;;;;;-2.72;82.30;99935.05;1717281;83;21069;-71
2022/01/09 01:55:56;;;;;;;22.70;8.85;;;;;;;-2.73;82.34;99933.33;1717333;83;21336;-69
2022/01/09 01:58:24;;;;;;;21.52;7.03;;;;;;;-2.85;82.48;99915.56;1717078;83;21081;-70
2022/01/09 02:00:50;;;;;;;25.20;8.25;;;;;;;-2.81;82.88;99931.48;1717094;83;21088;-71
2022/01/09 02:05:56;;;;;;;20.55;8.43;;;;;;;-2.92;85.65;99922.77;1685982;85;21142;-70
2022/01/09 02:08:23;;;;;;;15.03;7.20;;;;;;;-2.95;87.19;99930.43;1691871;84;21896;-70
2022/01/09 02:10:50;;;;;;;19.62;7.75;;;;;;;-2.99;88.92;99922.20;1670173;85;21067;-69
2022/01/09 02:13:19;;;;;;;26.60;8.70;;;;;;;-3.05;89.41;99921.70;1674865;85;21067;-71
2022/01/09 02:15:47;;;;;;;22.62;8.25;;;;;;;-3.08;90.14;99910.48;1672515;85;21024;-70
2022/01/09 02:18:20;;;;;;;24.18;8.03;;;;;;;-3.16;92.09;99908.66;1672837;85;21072;-69
2022/01/09 02:20:48;;;;;;;21.77;7.65;;;;;;;-3.18;93.24;99898.75;1672501;85;21870;-70
2022/01/09 02:23:15;;;;;;;22.30;7.17;;;;;;;-3.20;94.82;99896.61;1672558;85;21024;-69
2022/01/09 02:25:43;;;;;;;17.77;7.35;;;;;;;-3.21;96.57;99892.28;1671424;85;21515;-70
2022/01/09 02:28:11;;;;;;;23.55;8.80;;;;;;;-3.26;97.89;99884.91;1671940;85;21606;-70
2022/01/09 02:30:38;;;;;;;17.23;7.45;;;;;;;-3.29;98.94;99876.27;1672660;85;21024;-71
2022/01/09 02:33:09;;;;;;;25.43;9.45;;;;;;;-3.30;100.00;99883.12;1672806;85;21095;-70
2022/01/09 02:35:35;;;;;;;23.38;9.35;;;;;;;-3.35;100.00;99877.05;1672911;85;21040;-70
2022/01/09 02:38:05;;;;;;;25.92;8.30;;;;;;;-3.37;100.00;99873.16;1672410;85;21899;-69
2022/01/09 02:40:33;;;;;;;28.83;8.88;;;;;;;-3.36;100.00;99880.45;1672649;85;21051;-70
2022/01/09 02:42:59;;;;;;;28.05;10.30;;;;;;;-3.36;100.00;99868.86;1672895;85;21598;-71
2022/01/09 02:45:27;;;;;;;28.02;10.32;;;;;;;-3.39;100.00;99873.55;1672635;85;21160;-71
2022/01/09 02:47:55;;;;;;;20.65;8.75;;;;;;;-3.39;100.00;99863.67;1672689;85;21512;-71
2022/01/09 02:52:53;;;;;;;25.27;9.45;;;;;;;-3.39;100.00;99858.10;1672803;85;21654;-69
2022/01/09 02:55:19;;;;;;;18.60;6.87;;;;;;;-3.37;100.00;99852.98;1672395;85;21007;-71
2022/01/09 02:57:49;;;;;;;23.05;8.63;;;;;;;-3.37;100.00;99850.41;1672688;85;21055;-71
2022/01/09 03:00:24;;;;;;;27.97;9.00;;;;;;;-3.39;100.00;99842.65;1672752;85;22189;-70
2022/01/09 03:02:51;;;;;;;22.80;9.13;;;;;;;-3.40;100.00;99841.36;1672761;85;21703;-71
2022/01/09 03:05:18;;;;;;;17.32;7.70;;;;;;;-3.41;100.00;99843.47;1694026;84;21045;-69
2022/01/09 03:07:45;;;;;;;22.42;9.23;;;;;;;-3.46;100.00;99834.39;1708617;84;21168;-69
2022/01/09 03:10:13;;;;;;;20.00;7.58;;;;;;;-3.39;100.00;99838.79;1708242;84;22163;-69
2022/01/09 03:12:40;;;;;;;20.20;8.50;;;;;;;-3.41;100.00;99830.60;1708449;84;21065;-68
2022/01/09 03:19:08;;;;;;;19.00;8.33;;;;;;;-3.42;100.00;99822.45;1795672;79;22660;-69
2022/01/09 03:21:35;;;;;;;22.13;8.90;;;;;;;-3.46;100.00;99824.53;1755479;81;22031;-69
2022/01/09 03:24:01;;;;;;;22.45;8.68;;;;;;;-3.43;100.00;99821.98;1747272;82;21145;-69
2022/01/09 03:26:27;;;;;;;23.27;8.40;;;;;;;-3.45;100.00;99821.09;1747352;81;21085;-70
2022/01/09 03:28:54;;;;;;;24.50;9.38;;;;;;;-3.45;100.00;99814.66;1747351;82;21105;-70
2022/01/09 03:31:20;;;;;;;22.77;9.65;;;;;;;-3.47;100.00;99810.80;1747436;81;21017;-71
2022/01/09 03:33:47;;;;;;;21.62;8.98;;;;;;;-3.48;100.00;99813.34;1747284;81;21021;-69
2022/01/09 03:36:13;;;;;;;28.32;10.43;;;;;;;-3.50;100.00;99815.02;1747313;82;21148;-70
2022/01/09 03:38:42;;;;;;;24.77;9.25;;;;;;;-3.52;100.00;99817.98;1747401;82;21061;-71
2022/01/09 03:41:08;;;;;;;20.85;9.10;;;;;;;-3.54;100.00;99813.23;1747367;82;21020;-70
2022/01/09 03:43:36;;;;;;;25.00;10.18;;;;;;;-3.55;100.00;99810.23;1747414;82;21098;-70
2022/01/09 03:46:02;;;;;;;22.98;9.73;;;;;;;-3.57;100.00;99805.48;1747731;82;21385;-70
2022/01/09 03:48:30;;;;;;;27.40;10.95;;;;;;;-3.56;100.00;99798.22;1747516;82;21152;-70
2022/01/09 03:50:57;;;;;;;13.80;6.22;;;;;;;-3.55;100.00;99806.38;1748337;82;21072;-67
2022/01/09 03:53:24;;;;;;;29.30;12.23;;;;;;;-3.55;100.00;99799.94;1748390;81;21060;-69
2022/01/09 03:55:50;;;;;;;26.75;11.48;;;;;;;-3.51;100.00;99800.43;1747017;82;20987;-69
2022/01/09 03:58:16;;;;;;;23.42;10.70;;;;;;;-3.51;100.00;99798.72;1747332;82;22112;-69
2022/01/09 04:00:43;;;;;;;24.65;10.58;;;;;;;-3.51;100.00;99796.14;1747641;82;21784;-69
2022/01/09 04:03:09;;;;;;;26.62;11.63;;;;;;;-3.56;100.00;99787.49;1746977;82;21093;-71
2022/01/09 04:05:37;;;;;;;23.60;10.53;;;;;;;-3.56;100.00;99794.36;1747170;82;21040;-69
2022/01/09 04:08:05;;;;;;;29.90;13.43;;;;;;;-3.57;100.00;99787.46;1747693;82;21526;-72
2022/01/09 04:10:39;;;;;;;33.65;13.72;;;;;;;-3.61;100.00;99779.70;1747249;82;21044;-68
2022/01/09 04:13:01;;;;;;;40.98;17.35;;;;;;;-3.64;100.00;99784.78;1746164;82;21161;-68
2022/01/09 04:15:28;;;;;;;33.15;12.85;;;;;;;-3.68;100.00;99779.17;1747296;82;21535;-68
2022/01/09 04:17:56;;;;;;;36.88;12.23;;;;;;;-3.67;100.00;99770.59;1747510;81;21053;-68
2022/01/09 04:20:29;;;;;;;23.15;10.55;;;;;;;-3.64;100.00;99771.92;1748319;82;21524;-68
2022/01/09 04:22:57;;;;;;;29.57;12.33;;;;;;;-3.65;100.00;99768.05;1748000;81;22237;-68
2022/01/09 04:25:23;;;;;;;27.35;9.60;;;;;;;-3.67;100.00;99765.88;1746438;82;21536;-69
2022/01/09 04:27:50;;;;;;;23.92;10.30;;;;;;;-3.72;100.00;99768.39;1744944;82;21085;-68
2022/01/09 04:30:17;;;;;;;32.13;13.38;;;;;;;-3.76;100.00;99769.17;1747753;82;21073;-69
2022/01/09 04:32:43;;;;;;;34.53;13.10;;;;;;;-3.73;100.00;99763.20;1747597;82;21076;-69
2022/01/09 04:35:12;;;;;;;33.30;12.93;;;;;;;-3.72;100.00;99764.52;1744389;82;21057;-69
2022/01/09 04:37:38;;;;;;;34.40;13.22;;;;;;;-3.72;100.00;99759.81;1725497;82;21128;-69
2022/01/09 04:40:08;;;;;;;27.07;13.08;;;;;;;-3.70;100.00;99764.56;1722218;82;21637;-67
2022/01/09 04:42:42;;;;;;;28.87;12.93;;;;;;;-3.69;100.00;99758.13;1724936;82;20958;-68
2022/01/09 04:45:07;;;;;;;28.98;11.93;;;;;;;-3.68;100.00;99747.01;1721196;82;21026;-70
2022/01/09 04:47:35;;;;;;;38.58;15.53;;;;;;;-3.69;100.00;99745.26;1722347;83;20994;-67
2022/01/09 04:50:02;;;;;;;30.68;13.08;;;;;;;-3.71;100.00;99741.80;1734909;82;21116;-67
2022/01/09 04:52:33;;;;;;;28.67;12.82;;;;;;;-3.76;100.00;99726.72;1723695;82;21049;-69
2022/01/09 04:54:58;;;;;;;33.85;14.45;;;;;;;-3.75;100.00;99737.47;1717579;82;21108;-65
2022/01/09 04:57:24;;;;;;;34.00;13.32;;;;;;;-3.78;100.00;99726.25;1717574;83;21060;-66
2022/01/09 04:59:51;;;;;;;33.58;13.18;;;;;;;-3.78;100.00;99728.83;1717569;83;21092;-67
2022/01/09 05:02:17;;;;;;;37.00;14.68;;;;;;;-3.75;100.00;99722.03;1717618;83;21564;-65
2022/01/09 05:04:44;;;;;;;33.20;14.95;;;;;;;-3.72;100.00;99716.06;1717861;83;21022;-65
2022/01/09 05:07:12;;;;;;;33.73;13.62;;;;;;;-3.70;100.00;99710.52;1725388;82;21849;-64
2022/01/09 05:09:38;;;;;;;37.67;15.88;;;;;;;-3.69;100.00;99719.95;1728808;82;21585;-64
2022/01/09 05:12:07;;;;;;;31.35;12.78;;;;;;;-3.70;100.00;99705.37;1734844;82;21401;-65
2022/01/09 05:14:33;;;;;;;32.28;13.75;;;;;;;-3.68;100.00;99704.94;1737138;82;21130;-68
2022/01/09 05:17:00;;;;;;;33.60;14.00;;;;;;;-3.67;100.00;99714.41;1733537;82;21072;-67
2022/01/09 05:19:32;;;;;;;37.53;16.00;;;;;;;-3.69;100.00;99709.23;1717701;83;22049;-68
2022/01/09 05:21:58;;;;;;;38.30;15.53;;;;;;;-3.71;100.00;99708.34;1717759;82;21042;-68
2022/01/09 05:24:24;;;;;;;34.05;14.83;;;;;;;-3.69;100.00;99707.94;1717735;83;21037;-69
2022/01/09 05:26:51;;;;;;;32.63;14.70;;;;;;;-3.68;100.00;99700.68;1730351;82;21148;-69
2022/01/09 05:29:17;;;;;;;35.00;14.80;;;;;;;-3.66;100.00;99691.27;1732001;82;21073;-69
2022/01/09 05:31:44;;;;;;;38.78;15.08;;;;;;;-3.63;100.00;99699.03;1717609;82;21053;-71
2022/01/09 05:34:11;;;;;;;34.60;15.40;;;;;;;-3.59;100.00;99696.94;1734140;82;21045;-71
2022/01/09 05:36:37;;;;;;;34.08;13.75;;;;;;;-3.57;100.00;99693.51;1726723;82;21069;-71
2022/01/09 05:39:04;;;;;;;31.77;14.65;;;;;;;-3.57;100.00;99683.21;1704825;82;21586;-72
2022/01/09 05:41:30;;;;;;;38.73;16.97;;;;;;;-3.60;100.00;99678.47;1727630;82;21070;-70
2022/01/09 05:43:57;;;;;;;38.15;16.60;;;;;;;-3.59;100.00;99676.35;1728627;82;21077;-70
2022/01/09 05:46:24;;;;;;;38.95;16.17;;;;;;;-3.59;100.00;99675.06;1723124;82;21096;-70
2022/01/09 05:48:50;;;;;;;37.90;16.40;;;;;;;-3.58;100.00;99675.92;1719314;82;21104;-71
2022/01/09 05:51:17;;;;;;;40.40;15.75;;;;;;;-3.59;100.00;99669.91;1676494;85;21680;-71
2022/01/09 05:53:44;;;;;;;41.10;17.50;;;;;;;-3.55;100.00;99675.09;1717684;83;21132;-70
2022/01/09 05:56:10;;;;;;;37.13;14.93;;;;;;;-3.54;100.00;99672.94;1717766;83;21525;-70
2022/01/09 05:58:39;;;;;;;43.75;16.67;;;;;;;-3.53;100.00;99665.25;1717933;83;21548;-72
2022/01/09 06:01:06;;;;;;;34.33;13.90;;;;;;;-3.54;100.00;99652.35;1722939;82;21597;-71
2022/01/09 06:03:32;;;;;;;31.23;13.83;;;;;;;-3.46;100.00;99662.33;1722124;82;21506;-70
2022/01/09 06:05:59;;;;;;;39.58;16.93;;;;;;;-3.49;100.00;99666.17;1719415;82;20986;-70
2022/01/09 06:08:25;;;;;;;32.10;13.22;;;;;;;-3.48;100.00;99666.59;1720975;82;21562;-71
2022/01/09 06:10:52;;;;;;;37.80;16.02;;;;;;;-3.47;100.00;99660.62;1724472;82;21042;-70
2022/01/09 06:13:19;;;;;;;40.92;16.65;;;;;;;-3.35;100.00;99662.04;1724087;82;21305;-71
2022/01/09 06:15:49;;;;;;;43.05;17.17;;;;;;;-3.36;100.00;99669.30;1733125;82;21195;-71
2022/01/09 06:18:18;;;;;;;41.90;17.42;;;;;;;-3.41;100.00;99660.23;1726880;82;21116;-71
2022/01/09 06:20:45;;;;;;;45.50;16.85;;;;;;;-3.39;100.00;99664.98;1723445;82;21036;-70
2022/01/09 06:23:11;;;;;;;39.23;16.50;;;;;;;-3.39;100.00;99677.00;1717728;83;21608;-71
2022/01/09 06:25:37;;;;;;;50.67;18.02;;;;;;;-3.41;100.00;99656.81;1717843;83;21160;-71
2022/01/09 06:28:04;;;;;;;40.30;17.32;;;;;;;-3.46;100.00;99658.47;1718007;83;21100;-70
2022/01/09 06:30:30;;;;;;;31.35;15.28;;;;;;;-3.48;100.00;99658.44;1718056;82;21088;-71
2022/01/09 06:32:58;;;;;;;39.95;16.35;;;;;;;-3.49;100.00;99649.00;1717615;83;21910;-69
2022/01/09 06:35:25;;;;;;;39.85;16.70;;;;;;;-3.49;100.00;99655.88;1717737;82;21375;-71
2022/01/09 06:37:51;;;;;;;42.20;18.82;;;;;;;-3.50;100.00;99650.27;1744592;82;21037;-71
2022/01/09 06:40:18;;;;;;;36.38;15.13;;;;;;;-3.50;100.00;99654.98;1728267;82;22149;-70
2022/01/09 06:42:45;;;;;;;43.38;18.30;;;;;;;-3.52;100.00;99663.14;1718193;82;21065;-70
2022/01/09 06:45:15;;;;;;;47.33;18.48;;;;;;;-3.51;100.00;99645.98;1728187;82;21576;-69
2022/01/09 06:47:41;;;;;;;40.00;16.65;;;;;;;-3.51;100.00;99645.55;1727228;82;21044;-71
2022/01/09 06:50:10;;;;;;;39.70;16.95;;;;;;;-3.49;100.00;99641.71;1727598;82;21132;-69
2022/01/09 06:52:38;;;;;;;45.85;18.17;;;;;;;-3.46;100.00;99646.45;1726919;81;21502;-71
2022/01/09 06:55:06;;;;;;;47.25;19.37;;;;;;;-3.49;100.00;99636.56;1717375;83;21027;-69
2022/01/09 06:57:32;;;;;;;51.30;20.40;;;;;;;-3.54;100.00;99629.19;1724798;82;21567;-71
2022/01/09 06:59:59;;;;;;;74.00;28.98;;;;;;;-3.54;100.00;99629.19;1744455;82;21089;-70
2022/01/09 07:02:25;;;;;;;59.60;24.12;;;;;;;-3.54;100.00;99631.36;1732727;82;21089;-71
2022/01/09 07:04:52;;;;;;;51.33;19.50;;;;;;;-3.50;100.00;99627.09;1717370;83;21116;-70
2022/01/09 07:07:18;;;;;;;46.02;20.12;;;;;;;-3.51;100.00;99621.52;1717649;83;21029;-71
2022/01/09 07:09:44;;;;;;;49.38;19.98;;;;;;;-3.51;100.00;99621.52;1717288;83;21017;-70
2022/01/09 07:12:12;;;;;;;44.48;19.95;;;;;;;-3.49;100.00;99610.82;1717547;83;21125;-70
2022/01/09 07:14:39;;;;;;;49.33;19.65;;;;;;;-3.49;100.00;99609.53;1680319;85;21314;-71
2022/01/09 07:17:06;;;;;;;43.28;18.30;;;;;;;-3.48;100.00;99609.96;1717722;83;21212;-70
2022/01/09 07:19:33;;;;;;;47.00;19.05;;;;;;;-3.47;100.00;99625.44;1709579;83;21108;-69
2022/01/09 07:21:59;;;;;;;49.23;20.88;;;;;;;-3.45;100.00;99612.56;1672756;84;21061;-70
2022/01/09 07:24:25;;;;;;;38.80;16.73;;;;;;;-3.46;100.00;99606.98;1668973;84;21081;-69
2022/01/09 07:26:52;;;;;;;43.05;19.07;;;;;;;-3.45;100.00;99611.27;1669091;84;21128;-70
2022/01/09 07:29:18;;;;;;;44.65;18.30;;;;;;;-3.48;100.00;99617.69;1674441;84;21074;-70
2022/01/09 07:31:45;;;;;;;48.28;20.23;;;;;;;-3.48;100.00;99608.67;1669130;84;21128;-70
2022/01/09 07:34:11;;;;;;;42.83;17.77;;;;;;;-3.47;100.00;99611.70;1672968;84;21823;-70
2022/01/09 07:36:39;;;;;;;53.28;19.15;;;;;;;-3.49;100.00;99606.95;1691589;83;21068;-70
2022/01/09 07:39:05;;;;;;;50.30;21.23;;;;;;;-3.48;100.00;99601.80;1729001;82;21054;-70
2022/01/09 07:41:32;;;;;;;50.40;20.40;;;;;;;-3.49;100.00;99594.09;1732975;82;21168;-70
2022/01/09 07:43:58;;;;;;;51.00;19.32;;;;;;;-3.46;100.00;99600.55;1733423;82;21483;-71
2022/01/09 07:46:25;;;;;;;49.00;21.48;;;;;;;-3.44;100.00;99591.13;1733353;81;21050;-70
2022/01/09 07:48:51;;;;;;;44.77;19.85;;;;;;;-3.42;100.00;99595.88;1733691;82;21049;-70
2022/01/09 07:51:17;;;;;;;41.63;19.35;;;;;;;-3.40;100.00;99592.90;1712947;82;21124;-70
2022/01/09 07:53:44;;;;;;;52.95;21.82;;;;;;;-3.37;100.00;99592.92;1683885;84;21159;-71
2022/01/09 07:56:10;;;;;;;44.85;21.00;;;;;;;-3.34;100.00;99574.92;1703664;84;21120;-70
2022/01/09 07:58:38;;;;;;;53.75;20.02;;;;;;;-3.31;100.00;99582.70;1704002;82;21010;-71
2022/01/09 08:01:05;;;;;;;47.78;20.08;;;;;;;-3.30;100.00;99570.25;1720059;82;21045;-70
2022/01/09 08:03:33;;;;;;;53.25;22.13;;;;;;;-3.26;100.00;99564.72;1687024;82;21082;-71
2022/01/09 08:06:00;;;;;;;45.52;19.73;;;;;;;-3.25;100.00;99563.42;1723309;82;21518;-71
2022/01/09 08:08:27;;;;;;;47.43;22.25;;;;;;;-3.21;100.00;99571.63;1717641;82;21042;-71
2022/01/09 08:10:53;;;;;;;51.60;20.88;;;;;;;-3.16;100.00;99567.37;1724111;82;22246;-71
2022/01/09 08:13:20;;;;;;;54.20;22.62;;;;;;;-3.16;100.00;99558.79;1733074;82;21323;-70
2022/01/09 08:15:48;;;;;;;53.30;21.95;;;;;;;-3.12;100.00;99554.55;1715748;82;21097;-71
2022/01/09 08:18:14;;;;;;;57.85;23.20;;;;;;;-3.10;100.00;99551.56;1713477;82;21550;-71
2022/01/09 08:20:41;;;;;;;44.42;21.20;;;;;;;-3.08;100.00;99539.13;1738191;81;21037;-70
2022/01/09 08:23:07;;;;;;;52.78;24.45;;;;;;;-3.03;100.00;99543.03;1732583;82;21081;-71
2022/01/09 08:25:34;;;;;;;53.05;24.05;;;;;;;-3.03;100.00;99536.59;1717590;83;21085;-69
2022/01/09 08:28:01;;;;;;;45.65;20.57;;;;;;;-3.00;100.00;99532.73;1719143;82;21081;-73
2022/01/09 08:30:27;;;;;;;74.22;27.00;;;;;;;-2.96;100.00;99531.92;1720724;82;21084;-71
2022/01/09 08:32:54;;;;;;;50.25;21.33;;;;;;;-2.93;100.00;99534.52;1716845;83;21108;-72
2022/01/09 08:35:21;;;;;;;55.88;24.02;;;;;;;-2.91;100.00;99534.10;1719076;82;21044;-72
2022/01/09 08:37:48;;;;;;;53.05;23.07;;;;;;;-2.90;100.00;99534.52;1742649;82;21597;-71
2022/01/09 08:40:19;;;;;;;56.55;25.27;;;;;;;-2.88;100.00;99531.53;1736941;82;21050;-68
2022/01/09 08:42:45;;;;;;;;;;;;;;;-2.91;100.00;99525.52;1731877;82;22393;-73
2022/01/09 08:45:11;;;;;;;77.47;31.97;;;;;;;-2.86;100.00;99527.27;1727692;82;20236;-72
2022/01/09 08:47:38;;;;;;;125.67;60.45;;;;;;;-2.70;100.00;99526.09;1729145;82;21089;-72
2022/01/09 08:50:05;;;;;;;101.53;47.27;;;;;;;-2.62;100.00;99515.42;1727028;82;21085;-72
2022/01/09 08:52:32;;;;;;;72.78;31.97;;;;;;;-2.53;100.00;99516.77;1717278;83;21089;-70
2022/01/09 08:54:59;;;;;;;73.80;31.35;;;;;;;-2.48;100.00;99517.65;1720413;82;21124;-71
2022/01/09 08:57:25;;;;;;;60.73;28.83;;;;;;;-2.41;100.00;99509.09;1732196;82;21049;-69
2022/01/09 08:59:52;;;;;;;76.12;35.92;;;;;;;-2.39;100.00;99510.40;1721636;82;21485;-71
2022/01/09 09:02:19;;;;;;;86.72;38.30;;;;;;;-2.36;100.00;99508.67;1724054;82;21160;-72
2022/01/09 09:04:46;;;;;;;71.28;35.30;;;;;;;-2.35;100.00;99501.39;1731623;82;21596;-71
2022/01/09 09:07:14;;;;;;;91.97;38.95;;;;;;;-2.35;100.00;99492.77;1723092;82;21105;-71
2022/01/09 09:09:40;;;;;;;69.05;31.85;;;;;;;-2.34;100.00;99492.79;1724444;82;21592;-72
2022/01/09 09:12:09;;;;;;;73.22;33.33;;;;;;;-2.29;100.00;99495.83;1721755;82;21046;-72
2022/01/09 09:14:37;;;;;;;107.45;49.38;;;;;;;-2.17;100.00;99492.00;1724962;82;21029;-71
2022/01/09 09:17:04;;;;;;;74.37;34.75;;;;;;;-2.19;100.00;99485.97;1723143;82;21057;-72
2022/01/09 09:19:31;;;;;;;80.90;37.95;;;;;;;-2.15;100.00;99482.55;1736150;81;21481;-72
2022/01/09 09:21:58;;;;;;;82.15;38.80;;;;;;;-2.20;100.00;99485.55;1746596;82;21096;-72
2022/01/09 09:24:24;;;;;;;69.62;32.60;;;;;;;-2.24;100.00;99473.48;1746578;82;21089;-72
2022/01/09 09:26:51;;;;;;;68.25;31.87;;;;;;;-2.24;100.00;99469.61;1735558;82;22389;-72
2022/01/09 09:29:18;;;;;;;66.92;31.62;;;;;;;-2.22;100.00;99465.33;1731463;82;21105;-71
2022/01/09 09:31:45;;;;;;;63.52;30.97;;;;;;;-2.16;100.00;99466.66;1731171;82;21548;-70
2022/01/09 09:34:11;;;;;;;66.35;30.90;;;;;;;-2.23;100.00;99464.88;1747331;82;21041;-71
2022/01/09 09:36:38;;;;;;;62.90;29.63;;;;;;;-2.23;100.00;99461.01;1747378;82;21585;-71
2022/01/09 09:39:05;;;;;;;61.95;28.47;;;;;;;-2.22;100.00;99457.59;1747767;82;21147;-71
2022/01/09 09:41:31;;;;;;;58.23;28.27;;;;;;;-2.21;100.00;99451.56;1747494;82;21065;-72
2022/01/09 09:44:02;;;;;;;61.95;27.40;;;;;;;-2.29;100.00;99455.84;1747968;82;21058;-71
2022/01/09 09:46:28;;;;;;;73.02;31.45;;;;;;;-2.38;100.00;99458.80;1747528;82;21026;-71
2022/01/09 09:48:55;;;;;;;72.25;31.23;;;;;;;-2.37;100.00;99455.39;1743207;82;21021;-71
2022/01/09 09:51:27;;;;;;;78.83;35.95;;;;;;;-2.33;100.00;99449.36;1747424;82;21089;-70
2022/01/09 09:53:56;;;;;;;71.75;31.68;;;;;;;-2.28;100.00;99445.52;1747331;82;21581;-70
2022/01/09 09:56:22;;;;;;;68.15;31.25;;;;;;;-2.24;100.00;99437.37;1747319;82;21327;-72
2022/01/09 09:58:51;;;;;;;68.52;29.25;;;;;;;-2.23;100.00;99441.66;1747447;82;21081;-72
2022/01/09 10:01:30;;;;;;;66.12;28.85;;;;;;;-2.26;100.00;99432.63;1747110;82;21033;-72
2022/01/09 10:04:05;;;;;;;62.90;28.12;;;;;;;-2.23;100.00;99427.48;1733800;82;21075;-73
2022/01/09 10:06:43;;;;;;;64.00;28.42;;;;;;;-2.24;100.00;99424.05;1717395;83;21066;-72
2022/01/09 10:09:13;;;;;;;67.78;29.57;;;;;;;-2.22;100.00;99411.16;1719230;82;21119;-71
2022/01/09 10:11:54;;;;;;;62.78;28.15;;;;;;;-2.20;100.00;99410.74;1727336;82;21309;-72
2022/01/09 10:14:29;;;;;;;58.13;27.77;;;;;;;-2.21;100.00;99397.39;1717140;83;21620;-72
2022/01/09 10:17:19;;;;;;;54.80;25.52;;;;;;;-2.15;100.00;99389.68;1717328;83;21429;-73
2022/01/09 10:20:17;;;;;;;65.37;28.32;;;;;;;-2.05;100.00;99390.12;1714592;83;21125;-72
2022/01/09 10:22:52;;;;;;;68.72;31.75;;;;;;;-2.07;100.00;99386.70;1653848;85;21331;-72
2022/01/09 10:25:37;;;;;;;57.48;25.97;;;;;;;-2.14;100.00;99393.97;1704393;84;22211;-73
2022/01/09 10:28:17;;;;;;;63.92;30.17;;;;;;;-2.17;100.00;99395.27;1704101;84;21058;-72
2022/01/09 10:30:51;;;;;;;74.53;33.13;;;;;;;-2.10;100.00;99399.58;1704255;84;21085;-73
2022/01/09 10:33:20;;;;;;;71.42;32.00;;;;;;;-2.09;100.00;99394.87;1704394;84;21062;-74
2022/01/09 10:35:49;;;;;;;68.37;31.10;;;;;;;-2.09;100.00;99394.87;1705802;84;21087;-72
2022/01/09 10:38:27;;;;;;;68.87;33.05;;;;;;;-2.03;100.00;99387.12;1705569;84;21096;-72
2022/01/09 10:41:00;;;;;;;75.55;31.70;;;;;;;-1.97;100.00;99400.04;1704216;84;21078;-71
2022/01/09 10:43:39;;;;;;;62.53;27.80;;;;;;;-1.95;100.00;99397.03;1704649;82;21057;-73
2022/01/09 10:46:06;;;;;;;66.35;30.48;;;;;;;-2.04;100.00;99391.00;1730787;82;20998;-72
2022/01/09 10:48:39;;;;;;;65.37;31.87;;;;;;;-2.12;100.00;99381.53;1710858;82;21134;-72
2022/01/09 10:51:10;;;;;;;58.90;25.95;;;;;;;-2.09;100.00;99377.20;1704271;84;21046;-71
2022/01/09 10:53:42;;;;;;;80.40;34.65;;;;;;;-2.09;100.00;99364.31;1707630;82;21141;-71
2022/01/09 10:56:18;;;;;;;67.30;31.33;;;;;;;-2.02;100.00;99357.04;1715620;82;21526;-71
2022/01/09 10:58:56;;;;;;;78.87;35.80;;;;;;;-1.96;100.00;99354.01;1709313;82;21010;-70
2022/01/09 11:01:28;;;;;;;74.77;32.55;;;;;;;-1.92;100.00;99348.00;1722187;82;21141;-72
2022/01/09 11:03:59;;;;;;;64.03;29.77;;;;;;;-1.91;100.00;99349.73;1708103;82;21202;-72
2022/01/09 11:06:31;;;;;;;65.10;30.82;;;;;;;-1.90;100.00;99348.86;1712095;82;21057;-71
2022/01/09 11:08:59;;;;;;;61.25;28.83;;;;;;;-1.86;100.00;99346.27;1708011;82;21085;-73
2022/01/09 11:11:30;;;;;;;58.83;27.93;;;;;;;-1.90;100.00;99348.86;1712036;82;21129;-73
2022/01/09 11:13:56;;;;;;;66.45;31.12;;;;;;;-1.97;100.00;99343.27;1712258;82;21145;-72
2022/01/09 11:16:36;;;;;;;70.05;32.95;;;;;;;-1.94;100.00;99342.41;1660623;85;21100;-70
2022/01/09 11:19:12;;;;;;;66.72;30.70;;;;;;;-1.95;100.00;99342.84;1658255;85;21088;-72
2022/01/09 11:21:50;;;;;;;68.45;30.65;;;;;;;-1.94;100.00;99344.55;1694347;83;21138;-72
2022/01/09 11:25:05;;;;;;;70.17;28.55;;;;;;;-1.92;100.00;99333.80;1698936;83;21068;-70
2022/01/09 11:28:13;;;;;;;65.87;28.55;;;;;;;-1.92;100.00;99345.42;1650895;84;21124;-71
2022/01/09 11:31:03;;;;;;;72.12;29.82;;;;;;;-1.94;100.00;99333.38;1688055;84;21032;-70